Silver Fork, California
Current Conditions -  °F | °C
As of 12:53 AM on Thursday 27 Nov 2014 (Local Time) from KTVL Reporting Station
Clear Clear  
Wind Chill: 33°   Ceiling: Unl
Heat Index: 33°   Visibility: 10mi
Dew Point: 25°   Wind: 0mph
Humidity: 72%   Direction: NA
Pressure: 30.38"   Gusts: NA
Location:  38.7639°N, 120.248°W
Report Text: KTVL 270853Z AUTO 00000KT 10SM CLR 01/M04 A3038 RMK AO2 SLP261 T00061039 58006
Loading
Personal Weather Stations






























Interactive Weather Map New forecast layout! Learn more

10-Day Weather Forecast

Advertisements
Track Severe Weather on mobile